createdAt,value
2019-05-07T00:01:58.421Z,65.48
2019-05-07T00:04:28.038Z,65.32
2019-05-07T00:06:57.720Z,65.03
2019-05-07T00:09:27.466Z,65.13
2019-05-07T00:11:57.087Z,65.28
2019-05-07T00:14:26.769Z,65.21
2019-05-07T00:16:56.485Z,65.33
2019-05-07T00:19:26.469Z,65.10
2019-05-07T00:21:56.077Z,64.82
2019-05-07T00:24:25.905Z,64.79
2019-05-07T00:26:55.990Z,64.72
2019-05-07T00:29:25.603Z,64.71
2019-05-07T00:31:55.760Z,64.48
2019-05-07T00:34:27.023Z,64.14
2019-05-07T00:36:58.273Z,64.01
2019-05-07T00:39:32.858Z,64.49
2019-05-07T00:42:12.579Z,64.62
2019-05-07T00:44:55.339Z,64.91
2019-05-07T00:47:25.040Z,65.04
2019-05-07T00:49:56.433Z,65.19
2019-05-07T00:52:26.103Z,65.41
2019-05-07T00:54:55.701Z,65.42
2019-05-07T00:57:25.775Z,65.40
2019-05-07T00:59:55.431Z,65.33
2019-05-07T01:02:25.054Z,65.21
2019-05-07T01:04:54.660Z,65.07
2019-05-07T01:07:24.318Z,65.08
2019-05-07T01:09:53.930Z,65.16
2019-05-07T01:12:24.218Z,65.24
2019-05-07T01:14:53.969Z,65.42
2019-05-07T01:17:23.580Z,65.47
2019-05-07T01:19:53.459Z,65.48
2019-05-07T01:22:23.087Z,65.47
2019-05-07T01:24:53.638Z,65.33
2019-05-07T01:27:23.419Z,65.45
2019-05-07T01:29:53.075Z,65.55
2019-05-07T01:32:27.057Z,65.53
2019-05-07T01:35:16.033Z,65.76
2019-05-07T01:37:45.933Z,65.93
2019-05-07T01:40:15.915Z,65.94
2019-05-07T01:42:45.557Z,66.03
2019-05-07T01:45:16.226Z,66.05
2019-05-07T01:47:45.838Z,66.37
2019-05-07T01:50:15.954Z,66.25
2019-05-07T01:52:45.557Z,66.29
2019-05-07T01:55:15.168Z,66.63
2019-05-07T01:57:44.830Z,66.62
2019-05-07T02:00:15.734Z,66.91
2019-05-07T02:02:52.784Z,67.13
2019-05-07T02:05:30.038Z,67.67
2019-05-07T02:08:02.941Z,67.54
2019-05-07T02:10:37.099Z,67.60
2019-05-07T02:13:07.019Z,68.17
2019-05-07T02:15:36.624Z,68.37
2019-05-07T02:18:06.233Z,68.77
2019-05-07T02:20:36.927Z,68.97
2019-05-07T02:23:06.610Z,69.32
2019-05-07T02:25:36.233Z,69.54
2019-05-07T02:28:05.904Z,69.69
2019-05-07T02:30:35.515Z,69.80
2019-05-07T02:33:05.134Z,69.68
2019-05-07T02:35:34.796Z,69.92
2019-05-07T02:38:13.723Z,69.52
2019-05-07T02:40:48.484Z,69.42
2019-05-07T02:43:18.114Z,69.68
2019-05-07T02:45:54.863Z,70.09
2019-05-07T02:48:26.121Z,70.16
2019-05-07T02:50:57.380Z,70.01
2019-05-07T02:53:28.667Z,70.07
2019-05-07T02:56:03.547Z,70.60
2019-05-07T02:58:33.519Z,70.81
2019-05-07T03:01:04.985Z,70.45
2019-05-07T03:03:34.948Z,70.51
2019-05-07T03:06:04.618Z,70.25
2019-05-07T03:08:34.261Z,70.06
2019-05-07T03:11:04.233Z,69.93
2019-05-07T03:13:34.063Z,69.88
2019-05-07T03:16:04.325Z,70.10
2019-05-07T03:18:34.006Z,70.25
2019-05-07T03:21:19.184Z,70.36
2019-05-07T03:23:58.992Z,70.44
2019-05-07T03:26:30.273Z,70.32
2019-05-07T03:29:03.940Z,70.42
2019-05-07T03:31:36.284Z,70.84
2019-05-07T03:34:15.513Z,71.20
2019-05-07T03:36:47.482Z,71.42
2019-05-07T03:39:14.903Z,71.55
2019-05-07T03:41:45.208Z,71.65
2019-05-07T03:44:23.962Z,71.67
2019-05-07T03:47:01.888Z,71.35
2019-05-07T03:49:29.060Z,70.97
2019-05-07T03:51:58.658Z,70.50
2019-05-07T03:54:28.332Z,70.77
2019-05-07T03:57:04.213Z,71.02
2019-05-07T03:59:29.793Z,70.99
2019-05-07T04:02:03.078Z,71.06
2019-05-07T04:04:33.210Z,71.06
2019-05-07T04:07:03.593Z,70.91
2019-05-07T04:09:33.879Z,71.00
2019-05-07T04:12:04.136Z,70.95
2019-05-07T04:14:34.846Z,70.64
2019-05-07T04:17:14.530Z,70.63
2019-05-07T04:19:35.929Z,70.74
2019-05-07T04:22:05.517Z,70.58
2019-05-07T04:24:36.842Z,70.53
2019-05-07T04:27:12.956Z,70.85
2019-05-07T04:29:42.955Z,70.52
2019-05-07T04:32:14.434Z,70.31
2019-05-07T04:34:45.724Z,70.36
2019-05-07T04:37:15.804Z,70.43
2019-05-07T04:39:54.773Z,70.42
2019-05-07T04:42:25.257Z,70.27
2019-05-07T04:44:54.876Z,70.45
2019-05-07T04:47:38.605Z,70.28
2019-05-07T04:49:56.710Z,70.01
2019-05-07T04:52:33.401Z,70.01
2019-05-07T04:55:04.154Z,69.68
2019-05-07T04:57:33.947Z,69.35
2019-05-07T05:00:04.948Z,69.35
2019-05-07T05:02:43.465Z,68.84
2019-05-07T05:05:15.443Z,68.73
2019-05-07T05:07:45.054Z,68.60
2019-05-07T05:10:14.858Z,68.45
2019-05-07T05:12:45.137Z,68.40
2019-05-07T05:15:14.885Z,67.71
2019-05-07T05:17:49.961Z,67.82
2019-05-07T05:20:18.334Z,67.51
2019-05-07T05:23:05.721Z,67.11
2019-05-07T05:25:39.510Z,66.78
2019-05-07T05:28:09.504Z,67.06
2019-05-07T05:30:42.466Z,66.51
2019-05-07T05:33:12.842Z,66.28
2019-05-07T05:35:43.185Z,66.37
2019-05-07T05:38:13.169Z,66.39
2019-05-07T05:40:43.248Z,64.33
2019-05-07T05:43:16.896Z,62.64
2019-05-07T05:45:48.357Z,61.47
2019-05-07T05:48:18.237Z,62.16
2019-05-07T05:51:02.639Z,62.35
2019-05-07T05:53:52.268Z,62.18
2019-05-07T05:56:23.147Z,62.62
2019-05-07T05:58:56.878Z,62.00
2019-05-07T06:01:32.028Z,62.16
2019-05-07T06:04:03.469Z,61.81
2019-05-07T06:06:35.544Z,61.91
2019-05-07T06:09:24.934Z,61.80
2019-05-07T06:12:12.776Z,61.70
2019-05-07T06:14:44.093Z,61.83
2019-05-07T06:17:15.339Z,62.06
2019-05-07T06:19:46.623Z,61.89
2019-05-07T06:22:34.014Z,62.11
2019-05-07T06:25:06.439Z,62.05
2019-05-07T06:27:36.252Z,62.04
2019-05-07T06:30:06.558Z,61.88
2019-05-07T06:32:36.162Z,61.56
2019-05-07T06:35:06.919Z,62.10
2019-05-07T06:37:39.852Z,61.82
2019-05-07T06:40:12.124Z,62.06
2019-05-07T06:42:46.579Z,62.29
2019-05-07T06:45:24.769Z,61.85
2019-05-07T06:47:54.422Z,61.62
2019-05-07T06:50:24.215Z,61.55
2019-05-07T06:52:53.994Z,60.59
2019-05-07T06:55:23.671Z,60.02
2019-05-07T06:57:53.969Z,60.22
2019-05-07T07:00:26.169Z,59.79
2019-05-07T07:02:57.471Z,60.21
2019-05-07T07:05:34.439Z,60.32
2019-05-07T07:08:15.200Z,60.10
2019-05-07T07:11:02.654Z,59.92
2019-05-07T07:13:32.655Z,59.24
2019-05-07T07:16:02.255Z,59.09
2019-05-07T07:18:32.426Z,58.60
2019-05-07T07:21:02.635Z,58.24
2019-05-07T07:23:32.628Z,58.00
2019-05-07T07:26:03.129Z,58.01
2019-05-07T07:28:33.246Z,57.47
2019-05-07T07:31:25.958Z,57.27
2019-05-07T07:33:55.558Z,56.39
2019-05-07T07:36:26.834Z,56.84
2019-05-07T07:38:56.512Z,57.12
2019-05-07T07:41:42.554Z,57.06
2019-05-07T07:44:13.449Z,56.53
2019-05-07T07:46:43.157Z,57.02
2019-05-07T07:49:15.083Z,56.18
2019-05-07T07:51:45.613Z,56.75
2019-05-07T07:54:15.520Z,56.59
2019-05-07T07:56:52.371Z,56.08
2019-05-07T07:59:25.506Z,54.32
2019-05-07T08:02:05.802Z,54.29
2019-05-07T08:04:35.885Z,54.69
2019-05-07T08:07:05.501Z,55.97
2019-05-07T08:09:35.758Z,57.25
2019-05-07T08:12:05.934Z,58.56
2019-05-07T08:14:36.129Z,59.08
2019-05-07T08:17:07.435Z,59.47
2019-05-07T08:19:37.128Z,59.98
2019-05-07T08:22:06.736Z,60.39
2019-05-07T08:24:36.401Z,60.14
2019-05-07T08:27:06.084Z,58.78
2019-05-07T08:29:35.704Z,58.16
2019-05-07T08:32:06.988Z,58.32
2019-05-07T08:34:42.797Z,58.71
2019-05-07T08:37:12.600Z,59.28
2019-05-07T08:39:42.907Z,59.63
2019-05-07T08:42:12.575Z,60.04
2019-05-07T08:44:43.828Z,59.83
2019-05-07T08:47:15.115Z,59.54
2019-05-07T08:49:45.009Z,59.22
2019-05-07T08:52:14.842Z,57.68
2019-05-07T08:54:44.523Z,58.31
2019-05-07T08:57:14.205Z,57.47
2019-05-07T08:59:57.448Z,57.01
2019-05-07T09:02:15.547Z,56.47
2019-05-07T09:04:45.165Z,55.38
2019-05-07T09:07:14.785Z,53.70
2019-05-07T09:09:45.000Z,52.81
2019-05-07T09:12:14.625Z,52.10
2019-05-07T09:14:45.016Z,52.20
2019-05-07T09:17:16.145Z,53.53
2019-05-07T09:19:51.144Z,54.35
2019-05-07T09:22:17.186Z,54.66
2019-05-07T09:24:46.881Z,54.64
2019-05-07T09:27:27.525Z,53.92
2019-05-07T09:30:02.713Z,52.50
2019-05-07T09:32:36.479Z,50.31
2019-05-07T09:35:14.014Z,51.39
2019-05-07T09:37:43.675Z,51.04
2019-05-07T09:40:13.737Z,51.62
2019-05-07T09:42:43.407Z,51.81
2019-05-07T09:45:13.260Z,51.99
2019-05-07T09:47:43.234Z,51.76
2019-05-07T09:50:13.436Z,51.10
2019-05-07T09:52:43.057Z,51.57
2019-05-07T09:55:16.773Z,47.69
2019-05-07T09:57:44.454Z,47.22
2019-05-07T10:00:15.233Z,47.67
2019-05-07T10:02:44.930Z,47.97
2019-05-07T10:05:15.309Z,48.23
2019-05-07T10:07:45.002Z,48.21
2019-05-07T10:10:15.356Z,48.79
2019-05-07T10:12:46.817Z,49.28
2019-05-07T10:15:17.732Z,49.92
2019-05-07T10:17:52.032Z,50.41
2019-05-07T10:20:22.914Z,50.22
2019-05-07T10:22:52.939Z,49.76
2019-05-07T10:25:22.701Z,49.02
2019-05-07T10:27:53.191Z,48.21
2019-05-07T10:30:23.069Z,47.79
2019-05-07T10:32:52.885Z,49.04
2019-05-07T10:35:23.032Z,52.42
2019-05-07T10:37:53.034Z,54.11
2019-05-07T10:40:23.772Z,54.89
2019-05-07T10:42:54.086Z,53.96
2019-05-07T10:45:36.848Z,53.11
2019-05-07T10:48:22.845Z,51.57
2019-05-07T10:51:02.866Z,52.13
2019-05-07T10:53:32.598Z,52.27
2019-05-07T10:56:02.763Z,52.20
2019-05-07T10:58:32.478Z,51.33
2019-05-07T11:01:03.027Z,50.29
2019-05-07T11:03:32.720Z,49.36
2019-05-07T11:06:02.336Z,48.72
2019-05-07T11:08:32.880Z,48.29
2019-05-07T11:11:03.121Z,46.56
2019-05-07T11:13:32.784Z,47.46
2019-05-07T11:16:11.750Z,47.69
2019-05-07T11:18:43.144Z,47.83
2019-05-07T11:21:14.203Z,47.61
2019-05-07T11:23:43.856Z,47.54
2019-05-07T11:26:13.466Z,47.14
2019-05-07T11:28:43.094Z,45.92
2019-05-07T11:31:12.851Z,46.42
2019-05-07T11:33:42.461Z,44.75
2019-05-07T11:36:12.081Z,44.13
2019-05-07T11:38:44.527Z,45.35
2019-05-07T11:41:13.126Z,45.38
2019-05-07T11:43:47.095Z,45.91
2019-05-07T11:46:22.226Z,45.05
2019-05-07T11:48:59.634Z,44.44
2019-05-07T11:51:36.878Z,44.42
2019-05-07T11:54:12.716Z,43.84
2019-05-07T11:56:43.173Z,43.11
2019-05-07T11:59:13.572Z,42.53
2019-05-07T12:01:48.202Z,42.17
2019-05-07T12:04:18.131Z,42.94
2019-05-07T12:06:47.755Z,42.62
2019-05-07T12:09:17.443Z,42.36
2019-05-07T12:11:47.385Z,41.31
2019-05-07T12:14:27.956Z,41.18
2019-05-07T12:16:48.337Z,40.76
2019-05-07T12:19:18.495Z,40.22
2019-05-07T12:21:48.150Z,40.14
2019-05-07T12:24:17.808Z,39.71
2019-05-07T12:26:47.639Z,38.87
2019-05-07T12:29:17.258Z,37.28
2019-05-07T12:31:55.772Z,36.36
2019-05-07T12:34:27.097Z,36.31
2019-05-07T12:36:56.791Z,36.84
2019-05-07T12:39:26.475Z,38.35
2019-05-07T12:41:56.119Z,38.51
2019-05-07T12:44:25.747Z,36.83
2019-05-07T12:46:55.404Z,32.66
2019-05-07T12:49:25.039Z,32.77
2019-05-07T12:51:56.295Z,32.23
2019-05-07T12:54:27.618Z,30.17
2019-05-07T12:56:57.239Z,31.92
2019-05-07T12:59:27.138Z,32.01
2019-05-07T13:01:58.425Z,31.00
2019-05-07T13:04:32.611Z,29.24
2019-05-07T13:07:03.907Z,29.78
2019-05-07T13:09:33.530Z,29.89
2019-05-07T13:12:03.205Z,31.41
2019-05-07T13:14:32.830Z,31.64
2019-05-07T13:17:02.848Z,30.47
2019-05-07T13:19:33.369Z,28.11
2019-05-07T13:22:03.021Z,28.21
2019-05-07T13:24:32.638Z,28.37
2019-05-07T13:27:03.315Z,29.05
2019-05-07T13:29:33.088Z,30.73
2019-05-07T13:32:03.843Z,33.13
2019-05-07T13:34:34.234Z,32.81
2019-05-07T13:37:06.147Z,29.55
2019-05-07T13:39:37.746Z,28.38
2019-05-07T13:42:08.994Z,28.14
2019-05-07T13:44:45.835Z,26.87
2019-05-07T13:47:26.063Z,28.27
2019-05-07T13:49:55.969Z,29.54
2019-05-07T13:52:26.046Z,30.20
2019-05-07T13:54:55.788Z,30.01
2019-05-07T13:57:25.513Z,29.92
2019-05-07T13:59:55.193Z,29.49
2019-05-07T14:02:29.121Z,30.08
2019-05-07T14:04:58.911Z,31.06
2019-05-07T14:07:32.270Z,31.48
2019-05-07T14:10:02.323Z,31.78
2019-05-07T14:12:33.768Z,31.27
2019-05-07T14:15:03.785Z,30.82
2019-05-07T14:17:33.818Z,31.12
2019-05-07T14:20:04.857Z,31.59
2019-05-07T14:22:34.735Z,32.76
2019-05-07T14:25:06.255Z,32.19
2019-05-07T14:27:35.929Z,31.97
2019-05-07T14:30:08.629Z,32.00
2019-05-07T14:32:42.792Z,31.83
2019-05-07T14:35:32.218Z,32.66
2019-05-07T14:38:08.963Z,32.49
2019-05-07T14:40:38.610Z,32.56
2019-05-07T14:43:15.905Z,32.64
2019-05-07T14:45:45.518Z,32.97
2019-05-07T14:48:15.216Z,33.38
2019-05-07T14:50:45.166Z,33.65
2019-05-07T14:53:15.227Z,33.78
2019-05-07T14:55:44.923Z,33.50
2019-05-07T14:58:14.613Z,33.56
2019-05-07T15:00:44.307Z,33.37
2019-05-07T15:03:13.934Z,33.27
2019-05-07T15:05:43.611Z,32.54
2019-05-07T15:08:14.339Z,33.21
2019-05-07T15:10:45.470Z,33.37
2019-05-07T15:13:15.552Z,33.72
2019-05-07T15:15:45.943Z,34.05
2019-05-07T15:18:26.380Z,33.68
2019-05-07T15:20:56.133Z,33.99
2019-05-07T15:23:30.597Z,33.55
2019-05-07T15:26:04.289Z,33.39
2019-05-07T15:28:32.906Z,32.59
2019-05-07T15:31:13.233Z,32.22
2019-05-07T15:33:42.948Z,31.92
2019-05-07T15:36:12.818Z,32.47
2019-05-07T15:38:43.030Z,32.59
2019-05-07T15:41:12.832Z,32.25
2019-05-07T15:43:45.852Z,32.65
2019-05-07T15:46:15.332Z,32.73
2019-05-07T15:48:45.216Z,32.39
2019-05-07T15:51:16.877Z,32.74
2019-05-07T15:53:47.836Z,33.37
2019-05-07T15:56:17.691Z,33.88
2019-05-07T15:58:47.327Z,33.78
2019-05-07T16:01:17.022Z,33.68
2019-05-07T16:03:47.294Z,33.80
2019-05-07T16:06:16.935Z,33.37
2019-05-07T16:08:49.194Z,33.49
2019-05-07T16:11:19.032Z,33.35
2019-05-07T16:13:52.459Z,33.58
2019-05-07T16:16:24.586Z,34.66
2019-05-07T16:18:55.828Z,34.98
2019-05-07T16:21:25.448Z,34.97
2019-05-07T16:23:55.118Z,34.86
2019-05-07T16:26:24.773Z,34.78
2019-05-07T16:28:54.412Z,34.73
2019-05-07T16:31:24.693Z,34.73
2019-05-07T16:33:54.406Z,34.97
2019-05-07T16:36:24.025Z,35.17
2019-05-07T16:38:53.695Z,35.49
2019-05-07T16:41:23.591Z,35.29
2019-05-07T16:43:53.208Z,35.38
2019-05-07T16:46:23.703Z,35.68
2019-05-07T16:48:53.593Z,36.14
2019-05-07T16:51:23.244Z,36.90
2019-05-07T16:53:52.900Z,36.35
2019-05-07T16:56:22.808Z,36.31
2019-05-07T16:59:07.604Z,36.96
2019-05-07T17:01:37.465Z,37.10
2019-05-07T17:04:07.122Z,36.54
2019-05-07T17:06:36.772Z,37.04
2019-05-07T17:09:08.383Z,37.60
2019-05-07T17:11:38.034Z,38.07
2019-05-07T17:14:07.728Z,38.40
2019-05-07T17:16:37.354Z,38.42
2019-05-07T17:19:07.336Z,38.50
2019-05-07T17:21:37.012Z,38.67
2019-05-07T17:24:06.638Z,38.97
2019-05-07T17:26:36.263Z,39.06
2019-05-07T17:29:06.735Z,39.12
2019-05-07T17:31:36.339Z,39.31
2019-05-07T17:34:06.187Z,39.55
2019-05-07T17:36:36.067Z,39.88
2019-05-07T17:39:07.281Z,40.05
2019-05-07T17:41:36.871Z,40.16
2019-05-07T17:44:06.580Z,40.07
2019-05-07T17:46:36.171Z,40.01
2019-05-07T17:49:05.877Z,40.22
2019-05-07T17:51:44.991Z,40.55
2019-05-07T17:54:14.707Z,40.78
2019-05-07T17:56:45.043Z,41.03
2019-05-07T17:59:16.257Z,41.34
2019-05-07T18:02:05.738Z,41.54
2019-05-07T18:04:50.482Z,41.65
2019-05-07T18:07:11.775Z,41.55
2019-05-07T18:09:42.445Z,41.70
2019-05-07T18:12:12.383Z,41.93
2019-05-07T18:14:42.494Z,41.95
2019-05-07T18:17:13.870Z,42.13
2019-05-07T18:19:44.062Z,42.17
2019-05-07T18:22:13.749Z,42.34
2019-05-07T18:24:43.520Z,42.62
2019-05-07T18:27:14.857Z,42.86
2019-05-07T18:29:44.749Z,43.07
2019-05-07T18:32:15.222Z,43.17
2019-05-07T18:34:44.907Z,43.29
2019-05-07T18:37:14.533Z,43.41
2019-05-07T18:39:44.157Z,43.58
2019-05-07T18:42:13.887Z,43.72
2019-05-07T18:44:43.588Z,44.03
2019-05-07T18:47:13.220Z,44.41
2019-05-07T18:49:44.848Z,44.56
2019-05-07T18:52:14.512Z,44.79
2019-05-07T18:54:44.170Z,44.99
2019-05-07T18:57:13.857Z,45.20
2019-05-07T18:59:43.519Z,45.31
2019-05-07T19:02:13.169Z,45.40
2019-05-07T19:04:42.981Z,45.77
2019-05-07T19:07:13.272Z,45.93
2019-05-07T19:09:42.983Z,46.06
2019-05-07T19:12:14.350Z,45.90
2019-05-07T19:14:44.097Z,45.71
2019-05-07T19:17:13.720Z,45.80
2019-05-07T19:19:43.431Z,45.78
2019-05-07T19:22:13.431Z,45.92
2019-05-07T19:24:47.920Z,46.16
2019-05-07T19:27:14.570Z,46.37
2019-05-07T19:29:45.876Z,46.72
2019-05-07T19:32:16.769Z,47.00
2019-05-07T19:34:47.291Z,47.12
2019-05-07T19:37:16.916Z,47.25
2019-05-07T19:39:46.542Z,47.43
2019-05-07T19:42:16.213Z,47.51
2019-05-07T19:44:45.838Z,47.67
2019-05-07T19:47:16.238Z,47.65
2019-05-07T19:49:45.869Z,47.62
2019-05-07T19:52:15.498Z,47.88
2019-05-07T19:54:57.893Z,47.97
2019-05-07T19:57:27.212Z,48.20
2019-05-07T19:59:57.013Z,48.23
2019-05-07T20:02:34.035Z,48.37
2019-05-07T20:05:04.125Z,48.39
2019-05-07T20:07:33.786Z,48.42
2019-05-07T20:10:03.535Z,48.71
2019-05-07T20:12:33.163Z,48.99
2019-05-07T20:15:02.942Z,49.11
2019-05-07T20:17:33.631Z,49.04
2019-05-07T20:20:05.591Z,48.92
2019-05-07T20:22:35.209Z,48.77
2019-05-07T20:25:15.247Z,48.96
2019-05-07T20:27:36.802Z,49.20
2019-05-07T20:30:08.113Z,49.26
2019-05-07T20:32:37.803Z,49.27
2019-05-07T20:35:07.845Z,48.99
2019-05-07T20:37:37.787Z,48.67
2019-05-07T20:40:08.102Z,48.58
2019-05-07T20:42:37.730Z,48.42
2019-05-07T20:45:07.475Z,48.56
2019-05-07T20:47:37.138Z,48.69
2019-05-07T20:50:08.196Z,48.90
2019-05-07T20:52:38.011Z,49.32
2019-05-07T20:55:28.168Z,49.62
2019-05-07T20:57:51.665Z,49.91
2019-05-07T21:00:26.342Z,50.03
2019-05-07T21:03:13.949Z,49.75
2019-05-07T21:05:43.611Z,49.56
2019-05-07T21:08:13.225Z,49.25
2019-05-07T21:10:42.873Z,49.24
2019-05-07T21:13:26.809Z,49.20
2019-05-07T21:15:43.883Z,49.38
2019-05-07T21:18:13.534Z,49.42
2019-05-07T21:20:43.182Z,49.39
2019-05-07T21:23:12.792Z,49.38
2019-05-07T21:25:45.827Z,49.67
2019-05-07T21:28:13.914Z,49.47
2019-05-07T21:30:43.526Z,49.56
2019-05-07T21:33:13.162Z,49.44
2019-05-07T21:35:43.081Z,49.84
2019-05-07T21:38:12.864Z,50.00
2019-05-07T21:40:43.337Z,49.91
2019-05-07T21:43:14.223Z,49.87
2019-05-07T21:45:44.001Z,49.95
2019-05-07T21:48:13.838Z,49.87
2019-05-07T21:50:44.317Z,49.89
2019-05-07T21:53:15.576Z,49.97
2019-05-07T21:56:01.824Z,50.21
2019-05-07T21:58:32.868Z,50.36
2019-05-07T22:01:07.301Z,50.31
2019-05-07T22:03:36.916Z,50.15
2019-05-07T22:06:09.603Z,50.32
2019-05-07T22:08:37.984Z,50.43
2019-05-07T22:11:07.606Z,50.41
2019-05-07T22:13:37.306Z,50.31
2019-05-07T22:16:07.360Z,50.16
2019-05-07T22:18:36.978Z,50.39
2019-05-07T22:21:07.692Z,50.51
2019-05-07T22:23:37.719Z,50.51
2019-05-07T22:26:19.278Z,50.56
2019-05-07T22:28:39.155Z,50.65
2019-05-07T22:31:26.445Z,50.69
2019-05-07T22:33:59.356Z,50.70
2019-05-07T22:36:29.182Z,50.64
2019-05-07T22:38:58.856Z,50.75
2019-05-07T22:41:28.485Z,50.80
2019-05-07T22:43:58.107Z,50.75
2019-05-07T22:46:27.803Z,50.77
2019-05-07T22:48:57.433Z,50.88
2019-05-07T22:51:27.101Z,50.93
2019-05-07T22:53:56.758Z,50.96
2019-05-07T22:56:35.059Z,51.06
2019-05-07T22:58:59.354Z,51.05
2019-05-07T23:01:29.059Z,51.05
2019-05-07T23:03:58.753Z,50.97
2019-05-07T23:06:28.366Z,51.18
2019-05-07T23:08:58.013Z,51.30
2019-05-07T23:11:27.631Z,51.32
2019-05-07T23:13:57.324Z,51.43
2019-05-07T23:16:27.121Z,51.56
2019-05-07T23:18:57.017Z,51.64
2019-05-07T23:21:26.646Z,51.74
2019-05-07T23:23:56.347Z,51.83
2019-05-07T23:26:25.967Z,51.95
2019-05-07T23:28:55.658Z,52.15
2019-05-07T23:31:25.322Z,52.14
2019-05-07T23:33:54.934Z,52.39
2019-05-07T23:36:24.561Z,52.54
2019-05-07T23:38:54.219Z,52.69
2019-05-07T23:41:27.895Z,52.77
2019-05-07T23:44:12.416Z,52.71
2019-05-07T23:46:44.879Z,52.65
2019-05-07T23:49:14.240Z,52.54
2019-05-07T23:51:45.064Z,52.44
2019-05-07T23:54:14.695Z,52.55
2019-05-07T23:56:44.371Z,52.46
2019-05-07T23:59:14.973Z,52.42
